createdAt,value
2022-11-29T00:03:31.400Z,2.98
2022-11-29T00:07:30.746Z,3.01
2022-11-29T00:11:50.125Z,3.04
2022-11-29T00:15:49.300Z,3.06
2022-11-29T00:19:47.738Z,3.08
2022-11-29T00:23:46.709Z,3.08
2022-11-29T00:27:45.761Z,3.11
2022-11-29T00:31:44.737Z,3.11
2022-11-29T00:35:43.677Z,3.14
2022-11-29T00:39:42.378Z,3.15
2022-11-29T00:43:41.120Z,3.14
2022-11-29T00:47:53.966Z,3.13
2022-11-29T00:51:53.360Z,3.11
2022-11-29T00:55:53.009Z,3.14
2022-11-29T00:59:52.366Z,3.16
2022-11-29T01:04:24.240Z,3.14
2022-11-29T01:07:42.817Z,3.15
2022-11-29T01:11:41.481Z,3.17
2022-11-29T01:15:40.359Z,3.18
2022-11-29T01:19:39.479Z,3.16
2022-11-29T01:23:38.450Z,3.17
2022-11-29T01:27:37.626Z,3.16
2022-11-29T01:31:37.226Z,3.14
2022-11-29T01:35:36.200Z,3.12
2022-11-29T01:39:35.399Z,3.12
2022-11-29T01:43:34.722Z,3.14
2022-11-29T01:47:43.977Z,3.15
2022-11-29T01:51:11.162Z,3.16
2022-11-29T01:55:24.030Z,3.10
2022-11-29T01:59:25.980Z,3.08
2022-11-29T02:03:25.358Z,3.08
2022-11-29T02:07:24.559Z,3.05
2022-11-29T02:11:42.204Z,3.06
2022-11-29T02:15:44.059Z,3.01
2022-11-29T02:20:20.859Z,2.96
2022-11-29T02:23:25.323Z,2.93
2022-11-29T02:27:30.772Z,2.90
2022-11-29T02:31:42.097Z,2.87
2022-11-29T02:35:43.625Z,2.81
2022-11-29T02:39:49.738Z,2.77
2022-11-29T02:43:48.658Z,2.74
2022-11-29T02:47:53.397Z,2.69
2022-11-29T02:51:58.063Z,2.69
2022-11-29T02:56:15.321Z,2.64
2022-11-29T03:00:16.360Z,2.61
2022-11-29T03:04:18.258Z,2.58
2022-11-29T03:08:35.833Z,2.55
2022-11-29T03:12:43.574Z,2.54
2022-11-29T03:16:47.587Z,2.53
2022-11-29T03:21:05.047Z,2.49
2022-11-29T03:25:09.547Z,2.47
2022-11-29T03:29:21.116Z,2.44
2022-11-29T03:33:23.053Z,2.41
2022-11-29T03:37:26.108Z,2.38
2022-11-29T03:41:24.556Z,2.38
2022-11-29T03:45:23.518Z,2.36
2022-11-29T03:49:37.909Z,2.35
2022-11-29T03:53:39.997Z,2.31
2022-11-29T03:57:59.184Z,2.29
2022-11-29T04:02:18.326Z,2.28
2022-11-29T04:06:20.057Z,2.30
2022-11-29T04:10:43.996Z,2.29
2022-11-29T04:14:56.187Z,2.27
2022-11-29T04:19:13.724Z,2.27
2022-11-29T04:23:27.716Z,2.27
2022-11-29T04:27:46.817Z,2.25
2022-11-29T04:32:04.578Z,2.24
2022-11-29T04:36:22.183Z,2.23
2022-11-29T04:40:44.533Z,2.23
2022-11-29T04:44:43.455Z,2.20
2022-11-29T04:49:01.298Z,2.18
2022-11-29T04:53:20.838Z,2.14
2022-11-29T04:56:43.377Z,2.11
2022-11-29T05:00:50.428Z,2.07
2022-11-29T05:05:06.274Z,2.03
2022-11-29T05:09:23.532Z,2.02
2022-11-29T05:13:41.049Z,2.02
2022-11-29T05:17:53.535Z,2.05
2022-11-29T05:22:16.490Z,2.04
2022-11-29T05:26:18.140Z,1.99
2022-11-29T05:30:22.786Z,1.95
2022-11-29T05:33:54.410Z,1.92
2022-11-29T05:38:09.121Z,1.89
2022-11-29T05:42:26.688Z,1.89
2022-11-29T05:46:38.135Z,1.88
2022-11-29T05:50:40.131Z,1.88
2022-11-29T05:54:57.636Z,1.90
2022-11-29T05:58:59.233Z,1.89
2022-11-29T06:03:03.595Z,1.86
2022-11-29T06:07:16.705Z,1.87
2022-11-29T06:11:56.045Z,1.85
2022-11-29T06:15:14.007Z,1.85
2022-11-29T06:19:31.631Z,1.86
2022-11-29T06:23:44.532Z,1.82
2022-11-29T06:27:46.664Z,1.78
2022-11-29T06:31:52.498Z,1.76
2022-11-29T06:36:10.031Z,1.72
2022-11-29T06:40:14.371Z,1.69
2022-11-29T06:44:13.626Z,1.68
2022-11-29T06:48:16.530Z,1.66
2022-11-29T06:52:34.196Z,1.65
2022-11-29T06:56:47.315Z,1.62
2022-11-29T07:00:55.837Z,1.62
2022-11-29T07:05:20.806Z,1.63
2022-11-29T07:09:20.668Z,1.58
2022-11-29T07:13:20.648Z,1.54
2022-11-29T07:17:19.249Z,1.52
2022-11-29T07:21:21.160Z,1.50
2022-11-29T07:25:33.988Z,1.49
2022-11-29T07:29:04.068Z,1.47
2022-11-29T07:33:18.484Z,1.43
2022-11-29T07:37:36.116Z,1.41
2022-11-29T07:41:53.576Z,1.38
2022-11-29T07:45:52.382Z,1.35
2022-11-29T07:49:52.135Z,1.34
2022-11-29T07:53:51.226Z,1.32
2022-11-29T07:57:50.826Z,1.31
2022-11-29T08:01:49.745Z,1.32
2022-11-29T08:05:49.138Z,1.35
2022-11-29T08:09:48.107Z,1.36
2022-11-29T08:13:47.254Z,1.33
2022-11-29T08:17:46.871Z,1.33
2022-11-29T08:21:47.893Z,1.31
2022-11-29T08:26:01.907Z,1.30
2022-11-29T08:30:01.103Z,1.30
2022-11-29T08:33:59.750Z,1.32
2022-11-29T08:37:58.698Z,1.33
2022-11-29T08:41:58.014Z,1.33
2022-11-29T08:45:57.470Z,1.34
2022-11-29T08:50:02.291Z,1.35
2022-11-29T08:54:01.635Z,1.34
2022-11-29T08:58:01.655Z,1.36
2022-11-29T09:02:01.125Z,1.37
2022-11-29T09:06:10.529Z,1.37
2022-11-29T09:10:12.336Z,1.40
2022-11-29T09:14:13.222Z,1.40
2022-11-29T09:18:12.515Z,1.40
2022-11-29T09:22:11.456Z,1.40
2022-11-29T09:26:10.936Z,1.43
2022-11-29T09:30:10.640Z,1.45
2022-11-29T09:34:09.453Z,1.46
2022-11-29T09:38:11.153Z,1.47
2022-11-29T09:42:28.815Z,1.50
2022-11-29T09:46:46.472Z,1.50
2022-11-29T09:51:05.492Z,1.52
2022-11-29T09:55:23.103Z,1.52
2022-11-29T09:59:27.613Z,1.51
2022-11-29T10:03:32.062Z,1.52
2022-11-29T10:07:31.828Z,1.52
2022-11-29T10:11:57.051Z,1.53
2022-11-29T10:16:01.976Z,1.55
2022-11-29T10:20:04.720Z,1.56
2022-11-29T10:24:13.631Z,1.55
2022-11-29T10:28:26.669Z,1.56
2022-11-29T10:32:25.892Z,1.58
2022-11-29T10:36:40.873Z,1.60
2022-11-29T10:40:42.050Z,1.62
2022-11-29T10:44:41.554Z,1.62
2022-11-29T10:48:40.285Z,1.63
2022-11-29T10:52:39.460Z,1.64
2022-11-29T10:56:39.690Z,1.63
2022-11-29T11:00:45.697Z,1.64
2022-11-29T11:04:46.457Z,1.65
2022-11-29T11:08:51.650Z,1.66
2022-11-29T11:13:17.049Z,1.68
2022-11-29T11:17:15.632Z,1.68
2022-11-29T11:21:15.614Z,1.69
2022-11-29T11:25:34.934Z,1.71
2022-11-29T11:29:41.415Z,1.72
2022-11-29T11:33:41.987Z,1.72
2022-11-29T11:37:40.634Z,1.72
2022-11-29T11:42:00.869Z,1.72
2022-11-29T11:46:00.067Z,1.72
2022-11-29T11:50:06.930Z,1.72
2022-11-29T11:54:13.928Z,1.72
2022-11-29T11:57:43.491Z,1.72
2022-11-29T12:01:42.449Z,1.74
2022-11-29T12:05:44.851Z,1.76
2022-11-29T12:09:48.072Z,1.77
2022-11-29T12:13:51.027Z,1.78
2022-11-29T12:17:55.917Z,1.79
2022-11-29T12:22:15.911Z,1.80
2022-11-29T12:25:34.770Z,1.79
2022-11-29T12:29:34.493Z,1.79
2022-11-29T12:33:53.242Z,1.79
2022-11-29T12:37:56.907Z,1.79
2022-11-29T12:41:57.791Z,1.80
2022-11-29T12:46:14.169Z,1.79
2022-11-29T12:50:07.430Z,1.78
2022-11-29T12:54:06.113Z,1.79
2022-11-29T12:58:05.255Z,1.81
2022-11-29T13:02:04.331Z,1.82
2022-11-29T13:06:07.910Z,1.82
2022-11-29T13:10:39.625Z,1.80
2022-11-29T13:15:15.259Z,1.81
2022-11-29T13:18:37.780Z,1.82
2022-11-29T13:22:46.467Z,1.81
2022-11-29T13:26:46.190Z,1.81
2022-11-29T13:30:45.268Z,1.82
2022-11-29T13:34:47.198Z,1.81
2022-11-29T13:39:05.558Z,1.82
2022-11-29T13:43:08.024Z,1.81
2022-11-29T13:47:19.626Z,1.80
2022-11-29T13:50:52.825Z,1.80
2022-11-29T13:55:12.567Z,1.81
2022-11-29T13:59:30.596Z,1.80
2022-11-29T14:03:31.887Z,1.80
2022-11-29T14:07:33.412Z,1.80
2022-11-29T14:11:34.643Z,1.80
2022-11-29T14:15:37.381Z,1.79
2022-11-29T14:19:37.193Z,1.79
2022-11-29T14:23:37.231Z,1.79
2022-11-29T14:27:36.331Z,1.77
2022-11-29T14:31:53.847Z,1.77
2022-11-29T14:36:08.228Z,1.77
2022-11-29T14:40:32.860Z,1.77
2022-11-29T14:44:33.156Z,1.76
2022-11-29T14:48:33.263Z,1.77
2022-11-29T14:52:32.591Z,1.77
2022-11-29T14:56:31.489Z,1.77
2022-11-29T15:00:43.949Z,1.79
2022-11-29T15:04:43.879Z,1.81
2022-11-29T15:08:50.408Z,1.80
2022-11-29T15:13:04.712Z,1.80
2022-11-29T15:17:21.091Z,1.79
2022-11-29T15:21:20.310Z,1.75
2022-11-29T15:25:21.406Z,1.71
2022-11-29T15:29:21.556Z,1.67
2022-11-29T15:33:22.844Z,1.66
2022-11-29T15:37:40.107Z,1.66
2022-11-29T15:41:41.287Z,1.64
2022-11-29T15:45:30.603Z,1.64
2022-11-29T15:49:44.242Z,1.65
2022-11-29T15:54:13.145Z,1.62
2022-11-29T15:57:26.533Z,1.61
2022-11-29T16:01:26.010Z,1.58
2022-11-29T16:05:34.303Z,1.57
2022-11-29T16:09:03.281Z,1.57
2022-11-29T16:13:25.067Z,1.56
2022-11-29T16:17:29.588Z,1.54
2022-11-29T16:21:30.227Z,1.52
2022-11-29T16:25:36.130Z,1.50
2022-11-29T16:29:45.365Z,1.50
2022-11-29T16:33:45.129Z,1.48
2022-11-29T16:37:44.772Z,1.46
2022-11-29T16:41:44.387Z,1.46
2022-11-29T16:45:44.079Z,1.45
2022-11-29T16:49:44.390Z,1.46
2022-11-29T16:53:47.886Z,1.47
2022-11-29T16:57:47.534Z,1.45
2022-11-29T17:01:48.170Z,1.46
2022-11-29T17:05:24.284Z,1.47
2022-11-29T17:09:28.298Z,1.46
2022-11-29T17:13:27.914Z,1.44
2022-11-29T17:17:27.383Z,1.41
2022-11-29T17:21:27.689Z,1.38
2022-11-29T17:25:26.748Z,1.35
2022-11-29T17:29:26.609Z,1.36
2022-11-29T17:33:25.859Z,1.35
2022-11-29T17:37:39.416Z,1.31
2022-11-29T17:41:52.650Z,1.31
2022-11-29T17:45:51.951Z,1.30
2022-11-29T17:49:51.276Z,1.29
2022-11-29T17:53:51.281Z,1.29
2022-11-29T17:57:50.683Z,1.28
2022-11-29T18:01:50.394Z,1.25
2022-11-29T18:05:51.723Z,1.20
2022-11-29T18:09:51.272Z,1.20
2022-11-29T18:13:52.622Z,1.22
2022-11-29T18:17:51.528Z,1.21
2022-11-29T18:21:51.634Z,1.17
2022-11-29T18:26:01.469Z,1.15
2022-11-29T18:30:00.798Z,1.14
2022-11-29T18:34:01.621Z,1.13
2022-11-29T18:38:16.727Z,1.12
2022-11-29T18:42:22.182Z,1.13
2022-11-29T18:45:53.978Z,1.14
2022-11-29T18:50:34.205Z,1.13
2022-11-29T18:53:45.565Z,1.09
2022-11-29T18:57:47.913Z,1.09
2022-11-29T19:01:48.560Z,1.09
2022-11-29T19:05:56.349Z,1.06
2022-11-29T19:09:25.710Z,1.05
2022-11-29T19:13:24.702Z,1.03
2022-11-29T19:17:23.900Z,1.03
2022-11-29T19:21:24.644Z,1.02
2022-11-29T19:25:23.702Z,0.99
2022-11-29T19:29:23.622Z,0.97
2022-11-29T19:33:25.084Z,0.96
2022-11-29T19:37:24.411Z,0.96
2022-11-29T19:41:38.021Z,0.98
2022-11-29T19:45:40.700Z,1.00
2022-11-29T19:49:44.788Z,1.00
2022-11-29T19:53:46.628Z,1.01
2022-11-29T19:57:46.323Z,1.02
2022-11-29T20:01:45.401Z,0.99
2022-11-29T20:05:53.177Z,0.96
2022-11-29T20:09:52.044Z,0.98
2022-11-29T20:13:55.429Z,0.99
2022-11-29T20:17:54.646Z,1.00
2022-11-29T20:21:54.056Z,0.96
2022-11-29T20:25:53.596Z,0.94
2022-11-29T20:29:52.963Z,0.90
2022-11-29T20:33:53.242Z,0.90
2022-11-29T20:37:55.173Z,0.90
2022-11-29T20:41:54.172Z,0.92
2022-11-29T20:45:53.910Z,0.91
2022-11-29T20:49:53.286Z,0.90
2022-11-29T20:53:52.562Z,0.90
2022-11-29T20:57:51.752Z,0.90
2022-11-29T21:02:04.444Z,0.91
2022-11-29T21:06:05.071Z,0.92
2022-11-29T21:10:04.925Z,0.92
2022-11-29T21:14:06.223Z,0.88
2022-11-29T21:18:05.825Z,0.89
2022-11-29T21:22:07.815Z,0.90
2022-11-29T21:26:17.353Z,0.87
2022-11-29T21:30:19.334Z,0.83
2022-11-29T21:34:19.870Z,0.80
2022-11-29T21:38:22.776Z,0.79
2022-11-29T21:41:57.305Z,0.81
2022-11-29T21:45:57.581Z,0.81
2022-11-29T21:49:57.505Z,0.79
2022-11-29T21:53:56.704Z,0.76
2022-11-29T21:57:55.924Z,0.77
2022-11-29T22:02:10.053Z,0.77
2022-11-29T22:06:15.036Z,0.75
2022-11-29T22:10:18.475Z,0.75
2022-11-29T22:14:18.738Z,0.75
2022-11-29T22:18:18.264Z,0.75
2022-11-29T22:22:17.392Z,0.73
2022-11-29T22:26:16.498Z,0.72
2022-11-29T22:30:15.967Z,0.73
2022-11-29T22:34:15.242Z,0.74
2022-11-29T22:38:16.207Z,0.75
2022-11-29T22:41:54.617Z,0.77
2022-11-29T22:45:54.243Z,0.76
2022-11-29T22:49:55.425Z,0.75
2022-11-29T22:53:31.153Z,0.79
2022-11-29T22:57:29.997Z,0.80
2022-11-29T23:01:42.687Z,0.82
2022-11-29T23:05:41.321Z,0.81
2022-11-29T23:09:40.794Z,0.78
2022-11-29T23:13:41.640Z,0.78
2022-11-29T23:17:40.950Z,0.79
2022-11-29T23:21:40.855Z,0.79
2022-11-29T23:25:46.759Z,0.78
2022-11-29T23:30:05.719Z,0.78
2022-11-29T23:33:23.607Z,0.81
2022-11-29T23:37:22.669Z,0.84
2022-11-29T23:41:21.925Z,0.86
2022-11-29T23:45:20.956Z,0.88
2022-11-29T23:49:35.831Z,0.92
2022-11-29T23:53:34.740Z,0.96
2022-11-29T23:57:33.827Z,1.01
